createdAt,value
2023-03-06T00:00:54.870Z,47.32
2023-03-06T00:03:23.220Z,47.32
2023-03-06T00:05:51.302Z,47.37
2023-03-06T00:08:19.322Z,47.44
2023-03-06T00:10:47.507Z,47.28
2023-03-06T00:13:16.511Z,47.51
2023-03-06T00:15:44.900Z,47.48
2023-03-06T00:18:13.165Z,47.39
2023-03-06T00:20:42.372Z,47.22
2023-03-06T00:23:11.138Z,47.46
2023-03-06T00:25:42.307Z,47.35
2023-03-06T00:28:10.392Z,47.50
2023-03-06T00:30:38.774Z,47.48
2023-03-06T00:33:06.852Z,47.40
2023-03-06T00:35:34.849Z,47.53
2023-03-06T00:38:02.901Z,47.38
2023-03-06T00:40:30.869Z,47.41
2023-03-06T00:42:58.964Z,47.63
2023-03-06T00:45:26.952Z,47.43
2023-03-06T00:47:55.096Z,47.49
2023-03-06T00:50:22.981Z,47.59
2023-03-06T00:52:51.048Z,47.38
2023-03-06T00:55:19.027Z,47.38
2023-03-06T00:57:47.101Z,47.42
2023-03-06T01:00:15.334Z,47.46
2023-03-06T01:02:43.463Z,47.42
2023-03-06T01:05:13.279Z,47.43
2023-03-06T01:07:41.354Z,47.27
2023-03-06T01:10:09.980Z,47.49
2023-03-06T01:12:38.123Z,47.43
2023-03-06T01:15:07.106Z,47.29
2023-03-06T01:17:36.115Z,47.41
2023-03-06T01:20:05.021Z,47.54
2023-03-06T01:22:32.979Z,47.35
2023-03-06T01:25:01.158Z,47.33
2023-03-06T01:27:29.138Z,47.25
2023-03-06T01:29:57.213Z,47.32
2023-03-06T01:32:25.138Z,47.37
2023-03-06T01:34:53.263Z,47.26
2023-03-06T01:37:21.239Z,47.33
2023-03-06T01:39:49.305Z,47.15
2023-03-06T01:42:17.492Z,47.37
2023-03-06T01:45:00.714Z,47.30
2023-03-06T01:47:28.997Z,47.34
2023-03-06T01:49:58.089Z,47.26
2023-03-06T01:52:28.526Z,47.22
2023-03-06T01:55:07.553Z,47.36
2023-03-06T01:57:38.712Z,47.28
2023-03-06T02:00:11.988Z,47.37
2023-03-06T02:02:47.577Z,47.20
2023-03-06T02:05:16.253Z,47.25
2023-03-06T02:07:45.335Z,47.17
2023-03-06T02:10:15.772Z,47.34
2023-03-06T02:12:44.140Z,47.42
2023-03-06T02:15:14.067Z,47.20
2023-03-06T02:17:42.441Z,47.20
2023-03-06T02:20:13.518Z,47.26
2023-03-06T02:22:52.422Z,47.26
2023-03-06T02:25:23.260Z,47.19
2023-03-06T02:27:51.298Z,47.23
2023-03-06T02:30:19.334Z,47.26
2023-03-06T02:32:47.265Z,47.31
2023-03-06T02:35:18.339Z,47.34
2023-03-06T02:37:46.923Z,47.16
2023-03-06T02:40:17.458Z,47.12
2023-03-06T02:42:49.616Z,47.32
2023-03-06T02:45:21.588Z,47.23
2023-03-06T02:47:49.654Z,47.10
2023-03-06T02:50:17.741Z,47.12
2023-03-06T02:52:45.910Z,47.13
2023-03-06T02:55:13.987Z,47.03
2023-03-06T02:57:42.157Z,47.15
2023-03-06T03:00:10.646Z,47.09
2023-03-06T03:02:38.833Z,47.09
2023-03-06T03:05:07.410Z,47.10
2023-03-06T03:07:36.416Z,47.12
2023-03-06T03:10:04.896Z,47.16
2023-03-06T03:12:33.377Z,47.05
2023-03-06T03:15:01.458Z,47.09
2023-03-06T03:17:29.740Z,47.28
2023-03-06T03:19:58.227Z,47.08
2023-03-06T03:22:26.286Z,47.21
2023-03-06T03:24:54.294Z,47.20
2023-03-06T03:27:22.428Z,47.16
2023-03-06T03:29:50.742Z,47.18
2023-03-06T03:32:19.648Z,47.10
2023-03-06T03:34:47.813Z,47.02
2023-03-06T03:37:16.097Z,47.12
2023-03-06T03:39:44.277Z,47.07
2023-03-06T03:42:12.964Z,47.08
2023-03-06T03:44:41.353Z,47.08
2023-03-06T03:47:09.523Z,46.91
2023-03-06T03:49:38.935Z,47.02
2023-03-06T03:52:07.213Z,47.13
2023-03-06T03:54:36.629Z,47.00
2023-03-06T03:57:04.903Z,46.99
2023-03-06T03:59:35.125Z,46.93
2023-03-06T04:02:32.274Z,46.97
2023-03-06T04:05:08.102Z,47.07
2023-03-06T04:07:36.502Z,47.14
2023-03-06T04:10:05.974Z,47.03
2023-03-06T04:12:33.979Z,46.97
2023-03-06T04:15:02.779Z,47.03
2023-03-06T04:17:34.194Z,47.07
2023-03-06T04:20:05.026Z,47.05
2023-03-06T04:22:33.657Z,47.14
2023-03-06T04:25:01.862Z,47.18
2023-03-06T04:27:30.017Z,47.15
2023-03-06T04:29:58.198Z,47.14
2023-03-06T04:32:26.488Z,47.10
2023-03-06T04:34:55.066Z,47.25
2023-03-06T04:37:25.019Z,47.18
2023-03-06T04:39:53.321Z,47.10
2023-03-06T04:42:21.445Z,47.07
2023-03-06T04:44:49.488Z,47.04
2023-03-06T04:47:19.115Z,47.00
2023-03-06T04:49:47.724Z,46.98
2023-03-06T04:52:15.897Z,47.08
2023-03-06T04:54:43.766Z,47.17
2023-03-06T04:57:11.662Z,47.25
2023-03-06T04:59:39.835Z,47.14
2023-03-06T05:02:07.910Z,47.18
2023-03-06T05:04:35.969Z,47.18
2023-03-06T05:07:04.349Z,47.10
2023-03-06T05:09:33.776Z,47.15
2023-03-06T05:12:02.246Z,47.13
2023-03-06T05:14:30.833Z,47.13
2023-03-06T05:16:58.727Z,47.02
2023-03-06T05:19:26.777Z,47.08
2023-03-06T05:21:54.958Z,47.11
2023-03-06T05:24:22.985Z,47.13
2023-03-06T05:26:50.908Z,47.12
2023-03-06T05:29:19.281Z,47.20
2023-03-06T05:31:47.514Z,47.12
2023-03-06T05:34:16.375Z,47.15
2023-03-06T05:36:44.578Z,47.13
2023-03-06T05:39:13.331Z,47.13
2023-03-06T05:41:41.222Z,47.23
2023-03-06T05:44:09.185Z,47.20
2023-03-06T05:46:38.295Z,47.21
2023-03-06T05:49:06.255Z,47.20
2023-03-06T05:51:34.234Z,47.28
2023-03-06T05:54:02.208Z,47.28
2023-03-06T05:56:30.078Z,47.28
2023-03-06T05:58:58.151Z,47.25
2023-03-06T06:01:28.587Z,47.25
2023-03-06T06:03:56.552Z,47.17
2023-03-06T06:06:24.531Z,47.30
2023-03-06T06:08:52.498Z,47.28
2023-03-06T06:11:21.297Z,47.30
2023-03-06T06:13:49.681Z,47.31
2023-03-06T06:16:19.147Z,47.29
2023-03-06T06:18:47.259Z,47.32
2023-03-06T06:21:15.965Z,47.41
2023-03-06T06:23:44.230Z,47.37
2023-03-06T06:26:12.294Z,47.38
2023-03-06T06:28:40.183Z,47.33
2023-03-06T06:31:12.900Z,47.35
2023-03-06T06:33:41.586Z,47.41
2023-03-06T06:36:16.905Z,47.44
2023-03-06T06:38:44.986Z,47.46
2023-03-06T06:41:36.125Z,47.43
2023-03-06T06:44:01.281Z,47.49
2023-03-06T06:49:17.907Z,47.40
2023-03-06T06:51:45.977Z,47.55
2023-03-06T06:54:14.162Z,47.61
2023-03-06T06:56:42.139Z,47.64
2023-03-06T06:59:16.490Z,47.64
2023-03-06T07:01:45.527Z,47.61
2023-03-06T07:04:14.306Z,47.67
2023-03-06T07:06:42.996Z,47.68
2023-03-06T07:09:12.123Z,47.73
2023-03-06T07:11:40.843Z,47.74
2023-03-06T07:14:08.898Z,47.72
2023-03-06T07:16:36.980Z,47.76
2023-03-06T07:19:05.369Z,47.73
2023-03-06T07:21:33.336Z,47.77
2023-03-06T07:24:01.318Z,47.72
2023-03-06T07:26:32.102Z,47.82
2023-03-06T07:29:01.657Z,47.86
2023-03-06T07:31:29.667Z,47.73
2023-03-06T07:33:57.943Z,47.77
2023-03-06T07:36:26.129Z,47.83
2023-03-06T07:38:54.379Z,47.80
2023-03-06T07:41:22.762Z,47.71
2023-03-06T07:43:50.948Z,47.98
2023-03-06T07:46:19.612Z,47.82
2023-03-06T07:48:47.611Z,47.93
2023-03-06T07:51:17.115Z,48.02
2023-03-06T07:53:45.226Z,47.95
2023-03-06T07:56:13.681Z,48.06
2023-03-06T07:58:43.201Z,48.08
2023-03-06T08:01:12.899Z,48.14
2023-03-06T08:03:41.029Z,48.16
2023-03-06T08:06:10.580Z,48.19
2023-03-06T08:08:39.795Z,48.37
2023-03-06T08:11:08.491Z,48.24
2023-03-06T08:13:36.763Z,48.39
2023-03-06T08:16:05.507Z,48.56
2023-03-06T08:18:33.949Z,48.57
2023-03-06T08:21:13.160Z,48.61
2023-03-06T08:23:41.754Z,48.48
2023-03-06T08:26:17.813Z,48.67
2023-03-06T08:28:46.101Z,48.70
2023-03-06T08:31:19.904Z,48.65
2023-03-06T08:33:47.879Z,48.66
2023-03-06T08:36:15.848Z,48.55
2023-03-06T08:38:44.038Z,48.57
2023-03-06T08:41:12.105Z,48.61
2023-03-06T08:43:40.484Z,48.69
2023-03-06T08:46:10.200Z,48.78
2023-03-06T08:48:38.986Z,48.83
2023-03-06T08:51:08.698Z,48.79
2023-03-06T08:53:43.152Z,48.67
2023-03-06T08:56:19.518Z,48.76
2023-03-06T08:58:48.106Z,48.85
2023-03-06T09:01:21.532Z,48.76
2023-03-06T09:03:50.474Z,48.82
2023-03-06T09:06:18.265Z,48.91
2023-03-06T09:08:46.236Z,48.67
2023-03-06T09:11:15.245Z,48.88
2023-03-06T09:13:43.590Z,48.75
2023-03-06T09:16:12.150Z,48.98
2023-03-06T09:18:40.484Z,49.01
2023-03-06T09:21:09.278Z,48.97
2023-03-06T09:23:39.529Z,49.10
2023-03-06T09:26:08.180Z,48.99
2023-03-06T09:28:38.971Z,49.14
2023-03-06T09:31:08.046Z,49.13
2023-03-06T09:33:36.301Z,48.89
2023-03-06T09:36:04.993Z,49.18
2023-03-06T09:38:33.280Z,49.10
2023-03-06T09:41:22.366Z,49.07
2023-03-06T09:43:52.359Z,49.00
2023-03-06T09:46:25.257Z,49.00
2023-03-06T09:49:12.034Z,48.96
2023-03-06T09:51:49.433Z,48.84
2023-03-06T09:54:19.542Z,48.66
2023-03-06T09:56:49.147Z,48.81
2023-03-06T09:59:22.078Z,48.55
2023-03-06T10:01:56.442Z,48.62
2023-03-06T10:04:50.754Z,48.72
2023-03-06T10:07:18.699Z,48.63
2023-03-06T10:09:51.707Z,48.59
2023-03-06T10:12:25.000Z,48.68
2023-03-06T10:15:07.394Z,48.80
2023-03-06T10:17:37.838Z,48.79
2023-03-06T10:20:25.442Z,48.82
2023-03-06T10:23:05.177Z,48.86
2023-03-06T10:25:38.591Z,48.98
2023-03-06T10:28:12.493Z,48.86
2023-03-06T10:30:40.476Z,49.12
2023-03-06T10:33:27.073Z,49.22
2023-03-06T10:35:56.362Z,49.19
2023-03-06T10:38:33.152Z,49.17
2023-03-06T10:41:01.129Z,49.24
2023-03-06T10:43:29.159Z,49.28
2023-03-06T10:45:57.376Z,49.24
2023-03-06T10:48:27.508Z,49.30
2023-03-06T10:51:18.088Z,49.03
2023-03-06T10:53:51.707Z,49.03
2023-03-06T10:56:28.986Z,49.06
2023-03-06T10:59:12.308Z,48.85
2023-03-06T11:01:41.658Z,48.93
2023-03-06T11:04:17.390Z,49.02
2023-03-06T11:06:45.438Z,48.86
2023-03-06T11:09:15.775Z,48.59
2023-03-06T11:11:43.844Z,48.46
2023-03-06T11:14:15.091Z,48.47
2023-03-06T11:16:52.899Z,48.35
2023-03-06T11:19:25.695Z,48.25
2023-03-06T11:22:02.451Z,48.11
2023-03-06T11:24:39.736Z,47.97
2023-03-06T11:27:30.630Z,48.05
2023-03-06T11:30:00.164Z,47.85
2023-03-06T11:32:30.323Z,47.84
2023-03-06T11:35:05.911Z,47.68
2023-03-06T11:37:34.081Z,47.76
2023-03-06T11:40:11.172Z,47.89
2023-03-06T11:42:42.103Z,47.95
2023-03-06T11:45:19.213Z,48.03
2023-03-06T11:47:54.462Z,47.82
2023-03-06T11:50:31.209Z,47.93
2023-03-06T11:53:01.769Z,47.90
2023-03-06T11:55:56.097Z,47.71
2023-03-06T11:58:27.065Z,47.73
2023-03-06T12:01:01.536Z,47.70
2023-03-06T12:03:38.667Z,47.72
2023-03-06T12:06:25.677Z,47.85
2023-03-06T12:09:12.078Z,47.95
2023-03-06T12:11:43.721Z,48.07
2023-03-06T12:14:19.890Z,48.20
2023-03-06T12:16:58.708Z,48.27
2023-03-06T12:19:53.529Z,48.35
2023-03-06T12:22:57.543Z,48.37
2023-03-06T12:25:32.023Z,48.52
2023-03-06T12:28:19.270Z,48.58
2023-03-06T12:30:52.984Z,48.52
2023-03-06T12:33:26.423Z,48.36
2023-03-06T12:36:12.827Z,48.28
2023-03-06T12:38:41.009Z,48.22
2023-03-06T12:41:15.361Z,48.36
2023-03-06T12:43:43.401Z,48.29
2023-03-06T12:46:20.521Z,48.37
2023-03-06T12:48:55.828Z,48.22
2023-03-06T12:51:24.721Z,48.11
2023-03-06T12:53:53.514Z,48.14
2023-03-06T12:56:22.305Z,48.19
2023-03-06T12:58:51.832Z,48.33
2023-03-06T13:01:41.616Z,48.35
2023-03-06T13:04:18.560Z,48.43
2023-03-06T13:06:51.421Z,48.48
2023-03-06T13:09:51.865Z,48.50
2023-03-06T13:12:32.020Z,48.67
2023-03-06T13:15:19.038Z,48.68
2023-03-06T13:17:47.117Z,48.65
2023-03-06T13:20:15.176Z,48.64
2023-03-06T13:22:44.382Z,48.59
2023-03-06T13:25:21.429Z,48.37
2023-03-06T13:27:52.417Z,48.25
2023-03-06T13:30:23.746Z,48.35
2023-03-06T13:32:55.107Z,48.39
2023-03-06T13:35:32.364Z,48.48
2023-03-06T13:38:00.846Z,48.40
2023-03-06T13:40:37.859Z,48.18
2023-03-06T13:43:08.849Z,48.19
2023-03-06T13:45:43.325Z,48.06
2023-03-06T13:48:47.650Z,47.99
2023-03-06T13:51:24.427Z,48.04
2023-03-06T13:54:08.438Z,48.15
2023-03-06T13:56:39.892Z,48.34
2023-03-06T13:59:13.151Z,48.30
2023-03-06T14:01:50.238Z,48.27
2023-03-06T14:04:47.504Z,48.26
2023-03-06T14:07:18.649Z,48.41
2023-03-06T14:09:55.402Z,48.42
2023-03-06T14:12:30.457Z,48.43
2023-03-06T14:15:00.048Z,48.43
2023-03-06T14:17:33.268Z,48.49
2023-03-06T14:20:06.162Z,48.48
2023-03-06T14:22:34.127Z,48.57
2023-03-06T14:25:25.937Z,48.63
2023-03-06T14:27:58.207Z,48.63
2023-03-06T14:30:28.873Z,48.60
2023-03-06T14:32:57.340Z,48.46
2023-03-06T14:35:30.166Z,48.54
2023-03-06T14:38:03.937Z,48.49
2023-03-06T14:40:52.468Z,48.60
2023-03-06T14:43:21.994Z,48.81
2023-03-06T14:45:51.291Z,48.77
2023-03-06T14:48:19.269Z,48.66
2023-03-06T14:50:57.065Z,48.82
2023-03-06T14:53:29.540Z,48.98
2023-03-06T14:56:00.586Z,48.89
2023-03-06T14:58:36.647Z,49.00
2023-03-06T15:01:11.315Z,48.92
2023-03-06T15:03:48.665Z,48.67
2023-03-06T15:06:19.706Z,48.70
2023-03-06T15:08:49.419Z,48.96
2023-03-06T15:11:17.498Z,48.98
2023-03-06T15:13:59.797Z,48.86
2023-03-06T15:16:30.154Z,48.80
2023-03-06T15:19:02.722Z,48.79
2023-03-06T15:21:38.248Z,48.87
2023-03-06T15:24:25.001Z,48.75
2023-03-06T15:26:54.865Z,48.49
2023-03-06T15:29:23.248Z,48.47
2023-03-06T15:31:51.303Z,48.36
2023-03-06T15:34:23.709Z,48.33
2023-03-06T15:36:54.330Z,48.32
2023-03-06T15:39:39.305Z,48.25
2023-03-06T15:42:13.306Z,48.32
2023-03-06T15:44:41.608Z,48.25
2023-03-06T15:47:11.508Z,48.23
2023-03-06T15:49:39.797Z,48.21
2023-03-06T15:52:08.009Z,48.10
2023-03-06T15:54:36.035Z,48.02
2023-03-06T15:57:05.356Z,47.89
2023-03-06T15:59:35.783Z,47.85
2023-03-06T16:02:11.839Z,47.93
2023-03-06T16:04:40.015Z,47.94
2023-03-06T16:07:08.814Z,47.94
2023-03-06T16:09:37.299Z,48.09
2023-03-06T16:12:05.895Z,48.12
2023-03-06T16:14:34.165Z,48.20
2023-03-06T16:17:02.180Z,48.09
2023-03-06T16:19:30.425Z,48.10
2023-03-06T16:21:59.324Z,48.01
2023-03-06T16:24:27.370Z,48.06
2023-03-06T16:26:55.468Z,48.08
2023-03-06T16:29:25.586Z,48.10
2023-03-06T16:31:55.225Z,48.14
2023-03-06T16:34:23.785Z,48.16
2023-03-06T16:36:51.861Z,48.25
2023-03-06T16:39:21.716Z,48.35
2023-03-06T16:41:50.377Z,48.41
2023-03-06T16:44:18.650Z,48.40
2023-03-06T16:46:47.449Z,48.32
2023-03-06T16:49:17.072Z,48.22
2023-03-06T16:51:45.551Z,48.28
2023-03-06T16:54:14.239Z,48.19
2023-03-06T16:56:42.621Z,48.13
2023-03-06T16:59:11.308Z,48.18
2023-03-06T17:01:40.248Z,48.02
2023-03-06T17:04:08.559Z,48.05
2023-03-06T17:06:36.673Z,48.10
2023-03-06T17:09:05.043Z,48.03
2023-03-06T17:11:33.124Z,48.01
2023-03-06T17:14:01.557Z,48.01
2023-03-06T17:16:29.615Z,48.01
2023-03-06T17:18:58.261Z,48.02
2023-03-06T17:21:27.181Z,47.91
2023-03-06T17:23:55.639Z,48.00
2023-03-06T17:26:23.834Z,47.93
2023-03-06T17:28:51.840Z,47.88
2023-03-06T17:31:25.511Z,47.98
2023-03-06T17:33:59.928Z,47.93
2023-03-06T17:36:28.545Z,47.93
2023-03-06T17:38:57.350Z,47.89
2023-03-06T17:41:25.803Z,48.03
2023-03-06T17:43:57.935Z,47.89
2023-03-06T17:46:26.300Z,48.00
2023-03-06T17:48:54.835Z,48.03
2023-03-06T17:51:22.920Z,47.98
2023-03-06T17:53:52.244Z,47.89
2023-03-06T17:56:20.404Z,47.92
2023-03-06T17:58:48.673Z,47.80
2023-03-06T18:01:18.629Z,47.77
2023-03-06T18:03:48.408Z,47.81
2023-03-06T18:06:17.712Z,47.78
2023-03-06T18:08:46.206Z,47.87
2023-03-06T18:11:14.368Z,47.84
2023-03-06T18:13:43.388Z,47.90
2023-03-06T18:16:12.542Z,47.99
2023-03-06T18:18:40.863Z,47.93
2023-03-06T18:21:10.364Z,47.95
2023-03-06T18:23:39.069Z,47.94
2023-03-06T18:26:09.446Z,48.05
2023-03-06T18:28:40.642Z,48.04
2023-03-06T18:31:15.649Z,47.94
2023-03-06T18:33:44.265Z,48.01
2023-03-06T18:36:12.235Z,47.83
2023-03-06T18:38:41.645Z,47.95
2023-03-06T18:41:10.638Z,48.00
2023-03-06T18:43:39.128Z,47.93
2023-03-06T18:46:07.267Z,48.01
2023-03-06T18:48:36.061Z,48.06
2023-03-06T18:51:05.415Z,47.87
2023-03-06T18:53:33.794Z,48.05
2023-03-06T18:56:02.572Z,48.01
2023-03-06T18:58:30.769Z,48.09
2023-03-06T19:01:01.046Z,47.94
2023-03-06T19:03:29.070Z,48.16
2023-03-06T19:05:57.243Z,47.97
2023-03-06T19:08:25.554Z,48.06
2023-03-06T19:10:53.611Z,47.91
2023-03-06T19:13:21.682Z,47.94
2023-03-06T19:15:49.661Z,48.05
2023-03-06T19:18:18.253Z,47.97
2023-03-06T19:20:46.504Z,48.01
2023-03-06T19:23:14.601Z,47.95
2023-03-06T19:25:42.778Z,47.92
2023-03-06T19:28:10.756Z,48.11
2023-03-06T19:30:42.008Z,48.03
2023-03-06T19:33:09.980Z,48.09
2023-03-06T19:35:38.291Z,48.16
2023-03-06T19:38:06.236Z,48.08
2023-03-06T19:40:35.537Z,48.14
2023-03-06T19:43:04.127Z,48.15
2023-03-06T19:45:32.253Z,48.21
2023-03-06T19:48:01.099Z,48.15
2023-03-06T19:50:29.843Z,48.10
2023-03-06T19:52:58.180Z,48.09
2023-03-06T19:55:28.811Z,48.13
2023-03-06T19:57:56.786Z,48.18
2023-03-06T20:00:24.910Z,48.07
2023-03-06T20:02:53.262Z,48.13
2023-03-06T20:05:21.425Z,48.12
2023-03-06T20:07:49.912Z,48.16
2023-03-06T20:10:18.492Z,48.14
2023-03-06T20:12:46.468Z,48.23
2023-03-06T20:15:14.330Z,48.30
2023-03-06T20:17:42.201Z,48.23
2023-03-06T20:20:10.953Z,48.22
2023-03-06T20:22:39.194Z,48.34
2023-03-06T20:25:07.664Z,48.27
2023-03-06T20:27:35.739Z,48.30
2023-03-06T20:30:06.422Z,48.09
2023-03-06T20:32:36.135Z,48.41
2023-03-06T20:35:04.673Z,48.23
2023-03-06T20:37:32.539Z,48.35
2023-03-06T20:40:00.514Z,48.23
2023-03-06T20:42:28.594Z,48.25
2023-03-06T20:44:56.481Z,48.28
2023-03-06T20:47:24.445Z,48.21
2023-03-06T20:49:52.314Z,48.22
2023-03-06T20:52:20.388Z,48.17
2023-03-06T20:54:48.574Z,48.24
2023-03-06T20:57:16.541Z,48.37
2023-03-06T20:59:45.540Z,48.33
2023-03-06T21:02:15.046Z,48.33
2023-03-06T21:04:43.365Z,48.23
2023-03-06T21:07:11.402Z,48.42
2023-03-06T21:09:39.805Z,48.34
2023-03-06T21:12:07.868Z,48.30
2023-03-06T21:14:36.070Z,48.31
2023-03-06T21:17:04.126Z,48.29
2023-03-06T21:19:32.305Z,48.33
2023-03-06T21:22:00.377Z,48.42
2023-03-06T21:24:28.665Z,48.38
2023-03-06T21:26:56.744Z,48.34
2023-03-06T21:29:24.919Z,48.43
2023-03-06T21:31:53.013Z,48.32
2023-03-06T21:34:21.280Z,48.32
2023-03-06T21:36:49.250Z,48.33
2023-03-06T21:39:17.228Z,48.48
2023-03-06T21:41:45.199Z,48.45
2023-03-06T21:44:13.168Z,48.38
2023-03-06T21:46:41.147Z,48.50
2023-03-06T21:49:09.054Z,48.51
2023-03-06T21:51:37.205Z,48.33
2023-03-06T21:54:06.192Z,48.34
2023-03-06T21:56:34.270Z,48.44
2023-03-06T21:59:02.140Z,48.58
2023-03-06T22:01:30.518Z,48.61
2023-03-06T22:03:59.952Z,48.58
2023-03-06T22:06:29.155Z,48.57
2023-03-06T22:08:58.637Z,48.41
2023-03-06T22:11:28.263Z,48.49
2023-03-06T22:13:56.395Z,48.66
2023-03-06T22:16:24.777Z,48.71
2023-03-06T22:18:52.988Z,48.55
2023-03-06T22:21:22.203Z,48.66
2023-03-06T22:23:55.488Z,48.62
2023-03-06T22:26:23.706Z,48.60
2023-03-06T22:28:51.760Z,48.66
2023-03-06T22:31:21.531Z,48.68
2023-03-06T22:33:53.526Z,48.62
2023-03-06T22:36:22.218Z,48.59
2023-03-06T22:38:53.467Z,48.77
2023-03-06T22:41:22.260Z,48.60
2023-03-06T22:43:50.680Z,48.62
2023-03-06T22:46:18.996Z,48.76
2023-03-06T22:48:46.997Z,48.80
2023-03-06T22:51:16.193Z,48.95
2023-03-06T22:53:45.300Z,48.60
2023-03-06T22:56:14.614Z,48.81
2023-03-06T22:58:44.974Z,48.86
2023-03-06T23:01:20.872Z,48.86
2023-03-06T23:03:50.513Z,48.72
2023-03-06T23:06:20.241Z,48.83
2023-03-06T23:08:49.625Z,48.86
2023-03-06T23:11:19.836Z,48.84
2023-03-06T23:14:06.325Z,48.90
2023-03-06T23:16:53.247Z,48.87
2023-03-06T23:19:39.542Z,48.76
2023-03-06T23:22:26.041Z,49.03
2023-03-06T23:25:12.441Z,48.96
2023-03-06T23:27:41.346Z,48.99
2023-03-06T23:30:10.024Z,49.06
2023-03-06T23:32:38.228Z,49.12
2023-03-06T23:35:07.646Z,48.77
2023-03-06T23:37:35.892Z,49.09
2023-03-06T23:40:08.001Z,48.99
2023-03-06T23:42:36.240Z,49.15
2023-03-06T23:45:04.424Z,49.18
2023-03-06T23:47:33.313Z,49.20
2023-03-06T23:50:01.320Z,49.26
2023-03-06T23:52:29.360Z,49.22
2023-03-06T23:54:57.543Z,48.96
2023-03-06T23:57:25.721Z,49.11
2023-03-06T23:59:53.705Z,49.02
